Time;durP1;ratioP1;P1;durP2;ratioP2;P2;SDS_P1;SDS_P2;PMS_P1;PMS_P2;Temp;Humidity;BMP_temperature;BMP_pressure;BME280_temperature;BME280_humidity;BME280_pressure;Samples;Min_cycle;Max_cycle;Signal;HPM_P1;HPM_P2
2022/08/11 00:01:25;;;;;;;12.35;3.83;;;18.20;72.20;;;;;;6131813;23;20136;-90
2022/08/11 00:03:59;;;;;;;6.20;3.58;;;18.20;72.50;;;;;;6131140;23;20005;-90
2022/08/11 00:06:36;;;;;;;6.93;3.13;;;18.20;72.70;;;;;;6131214;23;20014;-90
2022/08/11 00:09:06;;;;;;;4.45;3.40;;;18.00;73.20;;;;;;6131630;23;20108;-90
2022/08/11 00:11:35;;;;;;;8.68;3.90;;;17.90;73.50;;;;;;6157557;23;20016;-90
2022/08/11 00:14:03;;;;;;;4.80;3.63;;;17.90;73.80;;;;;;6155396;23;20076;-90
2022/08/11 00:16:29;;;;;;;3.53;3.05;;;17.90;74.10;;;;;;6131559;23;20017;-89
2022/08/11 00:18:56;;;;;;;6.53;3.65;;;17.80;74.50;;;;;;6155932;23;20144;-89
2022/08/11 00:21:24;;;;;;;7.05;3.55;;;17.70;74.60;;;;;;6131409;23;20009;-89
2022/08/11 00:23:59;;;;;;;4.70;3.38;;;17.60;74.90;;;;;;6130557;23;20056;-90
2022/08/11 00:26:27;;;;;;;7.07;3.53;;;17.50;75.20;;;;;;6131289;23;20334;-90
2022/08/11 00:28:54;;;;;;;4.05;3.40;;;17.50;75.80;;;;;;6155821;23;20493;-90
2022/08/11 00:31:30;;;;;;;4.88;3.50;;;17.50;76.00;;;;;;6155848;23;20002;-90
2022/08/11 00:33:58;;;;;;;4.85;3.90;;;17.40;76.30;;;;;;6155551;23;20044;-90
2022/08/11 00:36:41;;;;;;;7.25;3.40;;;17.30;76.70;;;;;;6157250;23;20469;-90
2022/08/11 00:39:09;;;;;;;12.30;3.83;;;17.30;77.00;;;;;;6157364;23;20036;-90
2022/08/11 00:42:05;;;;;;;4.47;3.58;;;17.40;76.90;;;;;;6131541;23;20033;-90
2022/08/11 00:45:02;;;;;;;6.85;3.60;;;17.50;76.90;;;;;;6155773;23;20033;-90
2022/08/11 00:47:30;;;;;;;7.85;4.18;;;17.50;76.90;;;;;;6155458;23;20005;-91
2022/08/11 00:50:52;;;;;;;6.90;3.88;;;17.50;76.80;;;;;;6154945;23;20362;-91
2022/08/11 00:53:37;;;;;;;4.78;2.97;;;17.40;77.10;;;;;;6130922;23;20064;-89
2022/08/11 00:56:28;;;;;;;6.38;3.47;;;17.30;77.30;;;;;;6130638;23;20092;-90
2022/08/11 00:59:15;;;;;;;10.45;3.75;;;17.30;77.60;;;;;;6155093;23;20514;-90
2022/08/11 01:01:58;;;;;;;4.25;3.30;;;17.20;78.00;;;;;;6155718;23;20032;-91
2022/08/11 01:04:23;;;;;;;5.93;4.25;;;17.20;78.30;;;;;;6156899;23;20025;-90
2022/08/11 01:07:04;;;;;;;5.47;3.30;;;17.20;78.20;;;;;;6155609;23;20001;-89
2022/08/11 01:09:48;;;;;;;6.13;4.05;;;17.20;78.10;;;;;;6158072;23;20456;-90
2022/08/11 01:12:32;;;;;;;6.00;3.97;;;17.20;78.10;;;;;;6157768;23;20005;-91
2022/08/11 01:15:23;;;;;;;7.47;3.80;;;17.20;77.80;;;;;;6133020;23;20012;-90
2022/08/11 01:18:13;;;;;;;5.65;3.67;;;17.30;78.00;;;;;;6157777;23;20085;-89
2022/08/11 01:21:13;;;;;;;4.82;3.50;;;17.30;77.60;;;;;;6158687;23;20017;-90
2022/08/11 01:23:38;;;;;;;7.82;3.53;;;17.40;77.50;;;;;;6131809;23;20092;-91
2022/08/11 01:26:59;;;;;;;7.93;3.95;;;17.40;77.70;;;;;;6133198;23;20651;-90
2022/08/11 01:29:55;;;;;;;8.93;3.97;;;17.40;77.90;;;;;;6049465;23;20062;-89
2022/08/11 01:32:35;;;;;;;6.57;3.08;;;17.40;77.90;;;;;;6157507;23;20001;-89
2022/08/11 01:35:29;;;;;;;5.50;3.83;;;17.30;78.20;;;;;;6132468;23;20016;-91
2022/08/11 01:38:19;;;;;;;5.28;3.72;;;17.20;78.40;;;;;;6157493;23;20006;-89
2022/08/11 01:41:06;;;;;;;5.20;3.45;;;17.20;78.60;;;;;;6132710;23;20013;-90
2022/08/11 01:50:31;;;;;;;6.07;3.88;;;17.10;79.50;;;;;;6157200;23;20013;-90
2022/08/11 01:53:17;;;;;;;6.00;3.45;;;17.10;80.00;;;;;;6120816;23;20005;-90
2022/08/11 01:55:56;;;;;;;7.13;3.85;;;17.00;80.10;;;;;;6132652;23;20342;-90
2022/08/11 01:58:44;;;;;;;4.85;3.88;;;17.10;80.30;;;;;;6131977;23;20049;-90
2022/08/11 02:01:37;;;;;;;8.82;3.72;;;17.10;80.10;;;;;;6132638;23;20005;-91
2022/08/11 02:04:16;;;;;;;10.25;4.05;;;17.10;80.30;;;;;;6157292;23;20006;-90
2022/08/11 02:06:57;;;;;;;5.55;3.40;;;17.10;80.30;;;;;;6157534;23;20005;-91
2022/08/11 02:09:44;;;;;;;14.47;4.33;;;17.10;80.70;;;;;;6132360;23;20017;-90
2022/08/11 02:12:27;;;;;;;6.10;3.65;;;17.10;80.80;;;;;;6132557;23;20378;-90
2022/08/11 02:15:19;;;;;;;7.75;4.15;;;17.00;81.20;;;;;;6156813;23;20390;-90
2022/08/11 02:18:04;;;;;;;8.70;4.32;;;16.90;81.70;;;;;;6132482;23;20627;-90
2022/08/11 02:23:41;;;;;;;11.48;4.25;;;16.70;82.50;;;;;;6156232;23;20509;-90
2022/08/11 02:26:22;;;;;;;9.07;3.92;;;16.70;82.80;;;;;;6156759;23;20025;-90
2022/08/11 02:28:52;;;;;;;6.97;4.00;;;16.70;83.10;;;;;;6132416;23;20684;-91
2022/08/11 02:34:50;;;;;;;7.95;3.92;;;16.60;83.50;;;;;;6156022;23;20096;-89
2022/08/11 02:37:23;;;;;;;5.72;3.60;;;16.50;83.70;;;;;;6132549;23;20040;-90
2022/08/11 02:40:06;;;;;;;5.85;4.03;;;16.40;84.00;;;;;;6156550;23;20136;-90
2022/08/11 02:42:44;;;;;;;5.55;3.92;;;16.50;84.20;;;;;;6157002;23;20008;-90
2022/08/11 02:45:27;;;;;;;8.25;5.13;;;16.40;84.20;;;;;;6156191;23;20036;-90
2022/08/11 02:51:22;;;;;;;8.77;4.32;;;16.40;84.60;;;;;;6157119;23;20014;-90
2022/08/11 02:54:12;;;;;;;10.95;3.97;;;16.40;84.80;;;;;;6131929;23;20009;-90
2022/08/11 02:56:46;;;;;;;5.80;4.20;;;16.30;85.10;;;;;;6156849;23;20013;-90
2022/08/11 03:00:09;;;;;;;7.32;4.38;;;16.30;85.40;;;;;;6132102;23;20020;-91
2022/08/11 03:03:09;;;;;;;5.28;4.00;;;16.40;85.60;;;;;;6072075;23;20797;-90
2022/08/11 03:06:00;;;;;;;7.38;3.78;;;16.30;85.90;;;;;;6072514;23;20003;-90
2022/08/11 03:08:50;;;;;;;6.20;3.88;;;16.30;85.90;;;;;;6119942;23;20032;-90
2022/08/11 03:17:56;;;;;;;7.38;4.18;;;16.30;87.10;;;;;;6111181;23;20012;-86
2022/08/11 03:20:40;;;;;;;6.57;3.97;;;16.30;87.30;;;;;;6100001;23;20040;-90
2022/08/11 03:23:18;;;;;;;8.75;3.80;;;16.20;87.80;;;;;;6130892;23;20009;-90
2022/08/11 03:26:08;;;;;;;12.55;3.97;;;16.20;88.20;;;;;;6131377;23;20006;-91
2022/08/11 03:29:03;;;;;;;5.43;3.75;;;16.10;88.70;;;;;;6155815;23;20006;-90
2022/08/11 03:31:41;;;;;;;5.65;3.78;;;16.10;88.80;;;;;;6155491;23;19997;-90
2022/08/11 03:34:17;;;;;;;6.45;3.67;;;16.10;89.30;;;;;;6155496;23;20513;-92
2022/08/11 03:40:11;;;;;;;8.07;3.95;;;16.00;90.00;;;;;;6156989;23;20062;-92
2022/08/11 03:42:54;;;;;;;6.22;4.18;;;16.00;90.20;;;;;;6155033;23;20312;-90
2022/08/11 03:45:29;;;;;;;7.80;4.10;;;16.00;90.50;;;;;;6130739;23;20012;-91
2022/08/11 03:48:20;;;;;;;12.05;4.00;;;16.00;91.00;;;;;;6155291;23;20005;-91
2022/08/11 03:50:54;;;;;;;7.88;4.25;;;15.90;90.80;;;;;;6131360;23;20434;-90
2022/08/11 03:53:41;;;;;;;4.32;3.58;;;15.90;90.80;;;;;;6155961;23;20020;-90
2022/08/11 03:56:51;;;;;;;5.60;4.00;;;16.00;91.00;;;;;;6155623;23;20006;-91
2022/08/11 04:00:02;;;;;;;4.85;3.50;;;16.00;90.90;;;;;;6131075;23;20075;-90
2022/08/11 04:02:55;;;;;;;6.80;3.63;;;16.00;90.90;;;;;;6155720;23;20021;-90
2022/08/11 04:05:48;;;;;;;8.00;3.95;;;16.00;91.00;;;;;;6130521;23;20001;-91
2022/08/11 04:08:48;;;;;;;12.43;4.32;;;15.90;91.00;;;;;;6155809;23;20051;-91
2022/08/11 04:11:29;;;;;;;6.63;4.50;;;15.80;91.20;;;;;;6156034;23;20006;-91
2022/08/11 04:17:08;;;;;;;4.32;3.47;;;15.80;91.60;;;;;;6156207;23;20060;-91
2022/08/11 04:20:10;;;;;;;6.20;3.90;;;15.80;91.80;;;;;;6157195;23;20021;-90
2022/08/11 04:22:38;;;;;;;6.45;4.22;;;15.70;91.90;;;;;;6131591;23;20047;-90
2022/08/11 04:25:25;;;;;;;9.05;4.25;;;15.70;92.10;;;;;;6157428;23;20008;-90
2022/08/11 04:28:09;;;;;;;8.27;4.28;;;15.70;92.20;;;;;;6156202;23;20001;-91
2022/08/11 04:30:57;;;;;;;6.35;4.03;;;15.80;92.10;;;;;;6131319;23;20041;-92
2022/08/11 04:33:58;;;;;;;6.35;4.40;;;15.80;92.30;;;;;;6156207;23;20401;-92
2022/08/11 04:40:16;;;;;;;14.82;4.43;;;15.80;92.40;;;;;;6156040;23;20005;-91
2022/08/11 04:46:04;;;;;;;18.77;4.65;;;15.90;92.30;;;;;;6156105;23;20430;-91
2022/08/11 05:07:39;;;;;;;7.38;4.28;;;16.50;92.20;;;;;;6157365;23;20006;-93
2022/08/11 05:10:13;;;;;;;6.75;4.15;;;16.60;92.10;;;;;;6131282;23;20084;-90
2022/08/11 05:12:54;;;;;;;7.45;4.20;;;16.60;91.90;;;;;;6155594;23;20002;-91
2022/08/11 05:36:26;;;;;;;10.55;4.40;;;17.20;91.20;;;;;;6155589;23;20020;-92
2022/08/11 05:58:39;;;;;;;7.63;3.88;;;17.90;90.60;;;;;;6157185;23;20052;-93
2022/08/11 06:01:06;;;;;;;8.68;3.58;;;18.00;90.50;;;;;;6157729;23;20359;-93
2022/08/11 06:04:12;;;;;;;9.93;3.70;;;18.20;90.00;;;;;;6132526;23;20010;-93
2022/08/11 06:06:24;;;;;;;9.75;4.10;;;18.30;90.10;;;;;;6157052;23;20009;-94
2022/08/11 06:08:55;;;;;;;7.43;3.85;;;18.40;89.30;;;;;;6132344;23;20434;-93
2022/08/11 06:11:22;;;;;;;6.15;3.83;;;18.50;89.00;;;;;;6157530;23;20374;-93
2022/08/11 06:13:49;;;;;;;6.65;3.97;;;18.50;88.80;;;;;;6157206;23;20010;-92
2022/08/11 06:16:21;;;;;;;5.90;3.75;;;18.60;89.10;;;;;;6132500;23;20020;-94
2022/08/11 06:18:48;;;;;;;5.78;3.80;;;18.80;89.70;;;;;;6132430;23;20012;-93
2022/08/11 06:21:15;;;;;;;7.05;3.92;;;18.90;88.30;;;;;;6133883;23;20002;-94
2022/08/11 06:23:48;;;;;;;7.93;3.97;;;19.00;87.80;;;;;;6132639;23;20017;-93
2022/08/11 06:26:15;;;;;;;9.75;4.28;;;19.10;87.50;;;;;;6156991;23;20088;-93
2022/08/11 06:28:44;;;;;;;8.02;3.88;;;19.30;86.40;;;;;;6132465;23;20016;-92
2022/08/11 06:31:23;;;;;;;7.32;4.05;;;19.30;85.80;;;;;;6156884;23;20060;-93
2022/08/11 06:34:06;;;;;;;5.80;4.18;;;19.40;85.40;;;;;;6156884;23;20009;-92
2022/08/11 06:36:52;;;;;;;5.85;4.10;;;19.40;85.10;;;;;;6157070;23;20073;-94
2022/08/11 06:39:26;;;;;;;6.85;4.55;;;19.50;84.80;;;;;;6156782;23;20016;-92
2022/08/11 06:42:02;;;;;;;7.97;4.00;;;19.50;84.00;;;;;;6132272;23;20001;-92
2022/08/11 06:44:53;;;;;;;8.45;4.30;;;19.60;84.10;;;;;;6156818;23;20013;-93
2022/08/11 06:47:19;;;;;;;5.63;4.32;;;19.70;83.80;;;;;;6132053;23;20037;-94
2022/08/11 06:52:34;;;;;;;8.93;4.10;;;19.70;83.70;;;;;;6156596;23;20013;-92
2022/08/11 06:55:11;;;;;;;7.25;4.00;;;19.80;83.50;;;;;;6131839;23;20036;-92
2022/08/11 07:00:40;;;;;;;9.55;4.18;;;19.90;83.10;;;;;;6156746;23;20374;-90
2022/08/11 07:03:08;;;;;;;4.32;3.92;;;20.00;82.70;;;;;;6156587;23;20005;-92
2022/08/11 07:05:43;;;;;;;6.72;4.00;;;20.10;82.80;;;;;;6157727;23;20029;-92
2022/08/11 07:17:10;;;;;;;6.13;3.80;;;20.40;81.80;;;;;;6156079;23;20013;-91
2022/08/11 07:28:54;;;;;;;11.02;4.45;;;20.60;80.80;;;;;;6156796;23;20097;-92
2022/08/11 07:31:29;;;;;;;5.78;3.92;;;20.70;81.00;;;;;;6156158;23;20005;-92
2022/08/11 07:34:19;;;;;;;5.03;3.88;;;20.80;80.20;;;;;;6156546;23;20009;-92
2022/08/11 07:36:59;;;;;;;9.70;4.28;;;20.70;80.50;;;;;;6131265;23;20096;-92
2022/08/11 07:39:27;;;;;;;5.40;3.95;;;20.80;80.10;;;;;;6155878;23;20005;-90
2022/08/11 07:41:55;;;;;;;9.20;3.78;;;20.80;80.40;;;;;;6156369;23;20001;-91
2022/08/11 07:44:24;;;;;;;7.50;4.15;;;20.90;79.40;;;;;;6131791;23;20010;-91
2022/08/11 07:52:32;;;;;;;5.53;4.13;;;21.20;79.10;;;;;;6156101;23;20010;-93
2022/08/11 07:55:07;;;;;;;7.90;4.45;;;21.40;78.50;;;;;;6157718;23;20005;-92
2022/08/11 08:19:47;;;;;;;13.52;3.75;;;22.40;74.80;;;;;;6156139;23;20737;-93
2022/08/11 08:22:20;;;;;;;12.25;4.55;;;22.40;74.40;;;;;;6155784;23;20006;-93
2022/08/11 08:24:47;;;;;;;11.65;3.95;;;22.40;74.60;;;;;;6131281;23;20060;-93
2022/08/11 08:27:13;;;;;;;8.35;4.03;;;22.40;73.90;;;;;;6131867;23;20048;-94
2022/08/11 08:32:26;;;;;;;5.40;3.70;;;22.50;73.40;;;;;;6156082;23;20009;-91
2022/08/11 08:34:57;;;;;;;4.88;3.53;;;22.60;72.80;;;;;;6131421;23;20009;-93
2022/08/11 08:38:18;;;;;;;7.80;3.70;;;22.80;72.60;;;;;;6156290;23;20061;-93
2022/08/11 08:40:45;;;;;;;;;;;23.90;69.60;;;;;;6156035;23;20253;-91
2022/08/11 08:43:16;;;;;;;6.22;2.97;;;25.40;65.60;;;;;;6155983;23;19904;-93
2022/08/11 08:45:42;;;;;;;6.97;2.65;;;26.60;62.30;;;;;;6155642;23;20005;-94
2022/08/11 08:48:15;;;;;;;7.18;3.13;;;27.50;59.60;;;;;;6155237;23;20020;-91
2022/08/11 08:53:47;;;;;;;8.55;3.35;;;28.30;58.20;;;;;;6155641;23;20097;-93
2022/08/11 08:56:13;;;;;;;5.57;2.60;;;29.00;56.70;;;;;;6155526;23;20013;-91
2022/08/11 08:58:41;;;;;;;4.00;2.55;;;28.70;55.80;;;;;;6130889;23;20025;-91
2022/08/11 09:01:09;;;;;;;5.85;2.28;;;29.10;55.50;;;;;;6131313;23;20014;-93
2022/08/11 09:03:37;;;;;;;2.90;2.20;;;29.20;54.70;;;;;;6130869;23;20649;-92
2022/08/11 09:06:03;;;;;;;2.97;2.65;;;28.90;54.50;;;;;;6131963;23;20010;-92
2022/08/11 09:08:31;;;;;;;7.03;2.92;;;28.70;54.10;;;;;;6157267;23;20005;-92
2022/08/11 09:13:45;;;;;;;6.32;2.42;;;29.60;54.30;;;;;;6155675;23;20060;-93
2022/08/11 09:16:12;;;;;;;6.45;2.50;;;30.30;52.30;;;;;;6131255;23;20442;-92
2022/08/11 09:18:43;;;;;;;7.50;2.92;;;30.50;51.60;;;;;;6155272;23;20064;-92
2022/08/11 09:21:14;;;;;;;6.97;2.50;;;30.70;50.90;;;;;;6130636;23;20012;-93
2022/08/11 09:29:11;;;;;;;6.38;2.60;;;31.20;49.50;;;;;;6158601;23;20008;-94
2022/08/11 09:31:37;;;;;;;7.55;2.05;;;30.90;48.20;;;;;;6133699;23;20006;-92
2022/08/11 09:34:03;;;;;;;6.00;2.28;;;30.80;48.20;;;;;;6133465;23;20001;-92
2022/08/11 09:44:45;;;;;;;7.72;2.40;;;30.50;48.80;;;;;;6157858;23;20006;-92
2022/08/11 09:45:13;;;;;;;7.47;3.03;;;30.60;49.30;;;;;;6158338;23;20008;-93
2022/08/11 09:47:41;;;;;;;4.38;2.45;;;30.20;48.30;;;;;;6157273;23;20018;-94
2022/08/11 09:50:09;;;;;;;5.10;2.05;;;30.30;48.10;;;;;;6158268;23;20060;-92
2022/08/11 09:52:38;;;;;;;5.32;2.10;;;30.10;46.50;;;;;;6157443;23;20009;-94
2022/08/11 09:55:09;;;;;;;10.07;2.30;;;29.30;47.20;;;;;;6156806;23;20538;-91
2022/08/11 10:00:39;;;;;;;5.93;2.70;;;28.10;50.10;;;;;;6158539;23;20041;-91
2022/08/11 10:03:14;;;;;;;6.57;2.53;;;28.10;50.00;;;;;;6157595;23;20064;-90
2022/08/11 10:08:48;;;;;;;3.28;2.53;;;27.60;51.00;;;;;;6157273;23;20012;-92
2022/08/11 10:11:17;;;;;;;8.57;2.35;;;27.50;50.60;;;;;;6157477;23;20304;-91
2022/08/11 10:16:33;;;;;;;4.20;2.55;;;27.30;51.00;;;;;;6158253;23;20012;-91
2022/08/11 10:19:01;;;;;;;4.95;2.50;;;27.20;51.40;;;;;;6157346;23;20016;-91
2022/08/11 10:21:43;;;;;;;5.60;2.60;;;27.40;50.60;;;;;;6132629;23;20064;-91
2022/08/11 10:27:02;;;;;;;12.75;2.85;;;27.80;50.60;;;;;;6158449;23;20077;-92
2022/08/11 10:35:08;;;;;;;8.88;2.20;;;28.80;49.80;;;;;;6158365;23;20500;-92
2022/08/11 10:37:36;;;;;;;5.78;2.50;;;29.20;48.90;;;;;;6132205;23;20009;-93
2022/08/11 10:40:04;;;;;;;7.90;2.70;;;29.70;48.30;;;;;;6131942;23;20504;-93
2022/08/11 10:48:03;;;;;;;5.32;1.98;;;30.20;47.00;;;;;;6157955;23;20064;-92
2022/08/11 10:58:49;;;;;;;15.50;2.83;;;28.90;47.10;;;;;;6156613;23;20334;-93
2022/08/11 11:01:27;;;;;;;4.00;2.33;;;29.00;47.50;;;;;;6157305;23;20009;-92
2022/08/11 11:04:00;;;;;;;4.97;2.70;;;29.10;46.20;;;;;;6132280;23;20005;-92
2022/08/11 11:06:58;;;;;;;7.15;2.38;;;28.90;46.40;;;;;;6132041;23;20006;-93
2022/08/11 11:09:31;;;;;;;5.55;2.55;;;29.40;46.60;;;;;;6157064;23;20020;-92
2022/08/11 11:18:17;;;;;;;4.63;2.40;;;29.80;46.50;;;;;;6158039;23;20140;-93
2022/08/11 11:20:57;;;;;;;6.28;2.50;;;30.20;45.50;;;;;;6132167;23;20354;-93
2022/08/11 11:23:46;;;;;;;3.67;2.40;;;30.80;45.10;;;;;;6156984;23;20029;-93
2022/08/11 11:26:30;;;;;;;3.50;2.28;;;31.10;44.20;;;;;;6157490;23;20005;-92
2022/08/11 11:29:15;;;;;;;6.82;2.28;;;31.40;44.00;;;;;;6132295;23;20100;-93
2022/08/11 11:31:58;;;;;;;4.18;2.38;;;30.70;44.30;;;;;;6156976;23;20434;-92
2022/08/11 11:34:48;;;;;;;3.38;2.13;;;30.60;44.80;;;;;;6131987;23;20010;-95
2022/08/11 11:37:52;;;;;;;8.33;2.33;;;31.00;44.80;;;;;;6132417;23;20095;-92
2022/08/11 11:40:21;;;;;;;4.55;2.63;;;30.60;44.30;;;;;;6156658;23;20068;-93
2022/08/11 11:43:04;;;;;;;3.60;2.60;;;30.50;44.90;;;;;;6155752;23;20068;-92
2022/08/11 11:45:30;;;;;;;5.90;2.20;;;31.20;44.60;;;;;;6156402;23;20009;-91
2022/08/11 11:47:59;;;;;;;3.03;2.35;;;31.30;44.10;;;;;;6131058;23;20393;-93
2022/08/11 11:50:36;;;;;;;4.38;2.20;;;31.80;43.50;;;;;;6131969;23;20092;-94
2022/08/11 11:53:08;;;;;;;5.28;2.25;;;31.60;44.30;;;;;;6131302;23;20014;-95
2022/08/11 11:55:34;;;;;;;4.03;2.55;;;31.10;45.00;;;;;;6131560;23;20045;-91
2022/08/11 12:03:34;;;;;;;11.85;2.63;;;30.80;44.30;;;;;;6155468;23;20394;-93
2022/08/11 12:06:01;;;;;;;4.80;2.83;;;30.50;44.00;;;;;;6131340;23;20013;-93
2022/08/11 12:08:28;;;;;;;5.55;2.30;;;30.50;44.40;;;;;;6156439;23;20001;-92
2022/08/11 12:13:52;;;;;;;2.40;2.20;;;30.60;44.40;;;;;;6155900;23;20009;-93
2022/08/11 12:16:21;;;;;;;6.05;2.90;;;30.40;44.40;;;;;;6155913;23;20005;-93
2022/08/11 12:18:50;;;;;;;5.50;2.50;;;30.40;44.30;;;;;;6156040;23;20021;-94
2022/08/11 12:21:16;;;;;;;4.57;2.85;;;30.40;44.90;;;;;;6156179;23;20128;-93
2022/08/11 12:29:16;;;;;;;7.63;2.50;;;30.10;46.20;;;;;;6157679;23;20002;-92
2022/08/11 12:31:42;;;;;;;2.22;2.03;;;30.10;45.40;;;;;;6155739;23;20002;-91
2022/08/11 12:34:12;;;;;;;5.40;2.22;;;30.10;45.60;;;;;;6155708;23;20450;-92
2022/08/11 12:36:39;;;;;;;4.47;2.60;;;30.10;45.20;;;;;;6131103;23;20036;-91
2022/08/11 12:39:08;;;;;;;3.53;2.50;;;29.80;45.00;;;;;;6156434;23;20046;-94
2022/08/11 12:47:11;;;;;;;12.02;2.70;;;30.20;45.00;;;;;;6154970;23;20009;-92
2022/08/11 12:52:34;;;;;;;7.88;2.60;;;30.10;45.50;;;;;;6155821;23;20021;-92
2022/08/11 12:55:02;;;;;;;4.15;2.47;;;30.20;45.30;;;;;;6157098;23;20021;-92
2022/08/11 12:58:23;;;;;;;2.97;2.17;;;30.50;45.20;;;;;;6156784;23;20456;-93
2022/08/11 13:06:22;;;;;;;3.70;2.60;;;30.80;44.30;;;;;;6157644;23;20006;-92
2022/08/11 13:08:48;;;;;;;3.65;2.38;;;30.30;44.40;;;;;;6132830;23;20006;-93
2022/08/11 13:14:01;;;;;;;2.25;2.05;;;30.90;44.70;;;;;;6159294;23;20006;-92
2022/08/11 13:17:19;;;;;;;5.75;2.58;;;31.60;44.00;;;;;;6132607;23;20013;-94
2022/08/11 13:19:19;;;;;;;7.68;2.80;;;32.10;43.50;;;;;;6158736;23;20464;-91
2022/08/11 13:21:46;;;;;;;6.72;2.28;;;31.80;42.40;;;;;;6133457;23;20012;-92
2022/08/11 13:24:12;;;;;;;10.15;2.55;;;31.10;43.00;;;;;;6133233;23;20010;-93
2022/08/11 13:26:38;;;;;;;4.03;1.90;;;30.90;42.60;;;;;;6157890;23;20079;-94
2022/08/11 13:29:04;;;;;;;4.35;2.13;;;30.80;42.90;;;;;;6132578;23;20013;-94
2022/08/11 13:31:32;;;;;;;10.73;2.40;;;30.70;43.40;;;;;;6133309;23;20100;-94
2022/08/11 13:33:58;;;;;;;5.22;2.00;;;30.90;43.90;;;;;;6133108;23;20009;-93
2022/08/11 13:36:26;;;;;;;3.35;2.33;;;30.60;43.80;;;;;;6132656;23;20434;-90
2022/08/11 13:38:54;;;;;;;4.22;2.20;;;30.20;43.80;;;;;;6131850;23;20434;-92
2022/08/11 13:41:39;;;;;;;3.70;1.98;;;30.10;45.20;;;;;;6156511;23;20009;-87
2022/08/11 13:44:10;;;;;;;6.25;2.33;;;30.10;43.40;;;;;;6131961;23;20012;-92
2022/08/11 13:46:37;;;;;;;6.90;1.98;;;30.10;44.10;;;;;;6132331;23;20009;-92
2022/08/11 13:49:06;;;;;;;6.03;3.10;;;30.30;43.40;;;;;;6158857;23;20076;-94
2022/08/11 13:51:35;;;;;;;3.50;2.05;;;30.70;43.30;;;;;;6132727;23;20009;-92
2022/08/11 13:54:09;;;;;;;5.82;2.10;;;30.80;42.90;;;;;;6157186;23;20009;-93
2022/08/11 13:56:38;;;;;;;5.53;2.28;;;30.30;43.00;;;;;;6132526;23;20013;-93
2022/08/11 13:59:06;;;;;;;21.88;3.22;;;30.20;43.60;;;;;;6132769;23;20056;-90
2022/08/11 14:01:36;;;;;;;3.63;2.10;;;30.10;43.70;;;;;;6131999;23;20452;-92
2022/08/11 14:04:24;;;;;;;4.63;2.50;;;29.90;43.80;;;;;;6157118;23;20010;-93
2022/08/11 14:06:53;;;;;;;5.30;2.22;;;29.50;44.50;;;;;;6157108;23;20002;-93
2022/08/11 14:09:31;;;;;;;7.55;2.30;;;29.40;45.10;;;;;;6156578;23;20068;-91
2022/08/11 14:14:54;;;;;;;5.00;2.28;;;29.10;44.30;;;;;;6157838;23;20073;-91
2022/08/11 14:17:21;;;;;;;4.05;2.33;;;29.00;44.90;;;;;;6157260;23;20036;-94
2022/08/11 14:19:50;;;;;;;7.88;2.58;;;28.80;45.60;;;;;;6132532;23;20009;-92
2022/08/11 14:22:16;;;;;;;8.20;2.75;;;29.00;45.80;;;;;;6132362;23;20005;-94
2022/08/11 14:24:48;;;;;;;5.03;2.30;;;28.80;45.50;;;;;;6132351;23;20013;-92
2022/08/11 14:27:15;;;;;;;5.05;2.50;;;28.80;45.30;;;;;;6156761;23;20013;-93
2022/08/11 14:29:42;;;;;;;2.30;2.10;;;28.80;45.10;;;;;;6156803;23;20006;-92
2022/08/11 14:32:10;;;;;;;3.65;2.47;;;29.00;45.40;;;;;;6156825;23;20082;-93
2022/08/11 14:34:40;;;;;;;3.38;2.25;;;29.00;46.20;;;;;;6132253;23;20017;-92
2022/08/11 14:37:12;;;;;;;4.88;2.30;;;29.00;46.20;;;;;;6132135;23;20025;-92
2022/08/11 14:39:50;;;;;;;4.28;2.13;;;28.90;45.40;;;;;;6131594;23;20092;-92
2022/08/11 14:48:08;;;;;;;5.80;2.60;;;28.70;46.40;;;;;;6156102;23;20013;-90
2022/08/11 14:50:35;;;;;;;7.07;2.53;;;28.70;45.90;;;;;;6132115;23;20009;-92
2022/08/11 14:53:09;;;;;;;4.45;2.58;;;28.80;45.70;;;;;;6156264;23;20009;-91
2022/08/11 14:58:27;;;;;;;6.13;2.20;;;29.00;45.10;;;;;;6157594;23;20021;-91
2022/08/11 15:00:56;;;;;;;6.20;2.70;;;28.90;44.70;;;;;;6132415;23;20745;-93
2022/08/11 15:03:25;;;;;;;5.80;2.38;;;28.60;45.60;;;;;;6132023;23;20006;-92
2022/08/11 15:05:56;;;;;;;10.50;2.42;;;28.60;45.20;;;;;;6131501;23;20006;-91
2022/08/11 15:08:53;;;;;;;5.25;2.33;;;28.70;45.10;;;;;;6158012;23;20028;-93
2022/08/11 15:14:01;;;;;;;6.63;2.30;;;29.10;44.90;;;;;;6154441;23;20430;-93
2022/08/11 15:19:13;;;;;;;3.53;1.83;;;30.00;44.40;;;;;;6156336;23;20036;-93
2022/08/11 15:24:23;;;;;;;2.47;1.90;;;30.90;42.70;;;;;;6156339;23;20005;-93
2022/08/11 15:38:00;;;;;;;3.80;2.22;;;30.50;43.30;;;;;;6156421;23;20060;-92
2022/08/11 15:46:29;;;;;;;3.95;1.90;;;31.60;42.10;;;;;;6156128;23;20009;-92
2022/08/11 15:48:58;;;;;;;6.28;2.40;;;31.40;41.80;;;;;;6155949;23;20082;-93
2022/08/11 15:51:53;;;;;;;7.50;2.20;;;31.30;41.10;;;;;;6156677;23;20430;-91
2022/08/11 15:54:23;;;;;;;3.33;2.20;;;31.40;41.50;;;;;;6124171;23;20064;-92
2022/08/11 15:56:51;;;;;;;;;;;32.10;40.70;;;;;;6132313;23;20341;-93
2022/08/11 16:04:50;;;;;;;4.53;1.90;;;32.00;40.20;;;;;;6155889;23;20013;-92
2022/08/11 16:07:24;;;;;;;4.22;2.10;;;31.20;40.70;;;;;;6131393;23;20084;-92
2022/08/11 16:09:58;;;;;;;3.58;1.90;;;31.30;40.50;;;;;;6156172;23;20008;-92
2022/08/11 16:12:41;;;;;;;5.57;1.80;;;31.90;40.40;;;;;;6155737;23;20084;-94
2022/08/11 16:18:02;;;;;;;2.63;2.10;;;31.20;40.90;;;;;;6155660;23;20016;-93
2022/08/11 16:20:29;;;;;;;2.35;2.08;;;31.40;40.60;;;;;;6131375;23;20016;-93
2022/08/11 16:22:59;;;;;;;6.20;2.60;;;32.20;40.10;;;;;;6131158;23;20033;-92
2022/08/11 16:25:26;;;;;;;9.90;2.38;;;32.60;40.00;;;;;;6131279;23;20005;-91
2022/08/11 16:28:06;;;;;;;5.28;2.20;;;32.90;39.80;;;;;;6131101;23;20032;-91
2022/08/11 16:30:34;;;;;;;2.97;2.10;;;32.70;39.60;;;;;;6131098;23;20044;-93
2022/08/11 16:33:03;;;;;;;7.57;2.10;;;32.90;39.40;;;;;;6131589;23;20032;-92
2022/08/11 16:38:35;;;;;;;6.22;2.25;;;32.30;39.40;;;;;;6155640;23;20043;-93
2022/08/11 16:41:05;;;;;;;5.25;2.33;;;32.10;40.70;;;;;;6131018;23;20010;-94
2022/08/11 16:49:09;;;;;;;5.10;2.10;;;32.10;40.20;;;;;;6155551;23;20076;-91
2022/08/11 16:51:35;;;;;;;5.93;2.20;;;32.40;40.10;;;;;;6156004;23;20012;-94
2022/08/11 16:54:02;;;;;;;5.57;2.30;;;32.40;39.40;;;;;;6130915;23;20043;-92
2022/08/11 16:56:40;;;;;;;4.80;1.90;;;32.20;39.50;;;;;;6155467;23;20009;-92
2022/08/11 16:59:15;;;;;;;7.38;2.00;;;32.10;40.50;;;;;;6155437;23;20017;-94
2022/08/11 17:01:56;;;;;;;4.05;1.90;;;31.90;40.20;;;;;;6130969;23;20005;-92
2022/08/11 17:13:17;;;;;;;3.53;2.10;;;32.60;40.60;;;;;;6156938;23;20423;-93
2022/08/11 17:16:09;;;;;;;2.88;2.17;;;33.20;39.80;;;;;;6155659;23;20001;-91
2022/08/11 17:18:42;;;;;;;5.63;2.33;;;33.40;39.00;;;;;;6155601;23;20028;-94
2022/08/11 17:21:32;;;;;;;6.60;2.10;;;32.60;40.00;;;;;;6155606;23;20009;-92
2022/08/11 17:24:04;;;;;;;6.43;2.30;;;31.60;40.90;;;;;;6155628;23;20010;-92
2022/08/11 17:26:57;;;;;;;7.22;2.30;;;30.70;41.20;;;;;;6155383;23;20009;-91
2022/08/11 17:29:46;;;;;;;5.80;2.25;;;29.70;41.60;;;;;;6130618;23;20010;-94
2022/08/11 17:35:29;;;;;;;4.85;2.05;;;29.50;42.40;;;;;;6155299;23;20013;-93
2022/08/11 17:38:48;;;;;;;3.60;1.90;;;30.60;41.90;;;;;;6130926;23;20010;-93
2022/08/11 17:49:36;;;;;;;4.05;2.22;;;31.60;40.80;;;;;;6157497;23;20425;-94
2022/08/11 18:00:23;;;;;;;2.95;2.20;;;31.30;41.50;;;;;;6156898;23;20012;-92
2022/08/11 18:05:37;;;;;;;2.83;2.08;;;31.40;41.50;;;;;;6156990;23;20036;-92
